Time;durP1;ratioP1;P1;durP2;ratioP2;P2;SDS_P1;SDS_P2;PMS_P1;PMS_P2;Temp;Humidity;BMP_temperature;BMP_pressure;BME280_temperature;BME280_humidity;BME280_pressure;Samples;Min_cycle;Max_cycle;Signal;HPM_P1;HPM_P2
2021/05/31 00:01:37;;;;;;;;;13.00;11.50;;;;;23.44;44.86;101595.66;4991134;28;45521;-63
2021/05/31 00:04:03;;;;;;;;;16.00;11.75;;;;;23.44;45.24;101595.66;4996914;28;45904;-63
2021/05/31 00:06:28;;;;;;;;;13.00;12.50;;;;;23.44;44.93;101595.66;4977650;28;46410;-63
2021/05/31 00:08:54;;;;;;;;;15.00;11.25;;;;;23.44;44.85;101598.31;4990666;28;45530;-63
2021/05/31 00:11:20;;;;;;;;;11.25;10.25;;;;;23.43;44.93;101587.81;4994911;28;45515;-63
2021/05/31 00:13:46;;;;;;;;;11.50;11.50;;;;;23.40;44.66;101594.09;4989843;28;45530;-63
2021/05/31 00:16:13;;;;;;;;;13.00;12.00;;;;;23.41;45.02;101587.03;4996659;28;46726;-63
2021/05/31 00:18:38;;;;;;;;;11.00;10.50;;;;;;;;4996221;28;45505;-63
2021/05/31 00:21:04;;;;;;;;;12.50;11.00;;;;;23.41;44.74;101589.66;4995324;28;45433;-63
2021/05/31 00:23:29;;;;;;;;;13.00;9.75;;;;;23.41;44.88;101587.03;4995666;28;45443;-63
2021/05/31 00:25:55;;;;;;;;;9.50;9.00;;;;;23.39;44.50;101584.47;4995208;28;45409;-63
2021/05/31 00:28:20;;;;;;;;;13.00;9.50;;;;;23.37;44.77;101581.91;4993985;28;45792;-63
2021/05/31 00:30:46;;;;;;;;;12.25;11.25;;;;;23.40;44.96;101587.94;4972573;28;46284;-63
2021/05/31 00:33:11;;;;;;;;;13.00;9.25;;;;;23.35;45.04;101578.50;4997174;28;45482;-63
2021/05/31 00:35:37;;;;;;;;;9.50;9.50;;;;;23.36;45.03;101581.97;4993788;28;45509;-63
2021/05/31 00:38:02;;;;;;;;;15.50;13.25;;;;;23.35;44.98;101582.94;4978896;28;45578;-63
2021/05/31 00:40:28;;;;;;;;;9.75;9.00;;;;;23.35;44.91;101575.00;4992516;28;45486;-63
2021/05/31 00:42:54;;;;;;;;;9.00;9.00;;;;;23.34;44.96;101574.13;4995723;28;45469;-63
2021/05/31 00:45:19;;;;;;;;;10.50;9.50;;;;;23.35;44.65;101575.00;4993149;28;45514;-64
2021/05/31 00:47:45;;;;;;;;;11.75;9.50;;;;;23.33;44.72;101575.09;4995193;27;45441;-63
2021/05/31 00:50:11;;;;;;;;;9.00;9.00;;;;;23.32;44.94;101576.00;4986199;27;45434;-63
2021/05/31 00:52:37;;;;;;;;;11.00;10.00;;;;;23.32;44.82;101573.34;4993599;27;45568;-63
2021/05/31 00:55:03;;;;;;;;;13.50;11.00;;;;;23.32;45.03;101572.53;4996530;28;46605;-63
2021/05/31 00:57:28;;;;;;;;;10.00;10.00;;;;;23.30;45.02;101569.97;5001398;27;45928;-63
2021/05/31 00:59:54;;;;;;;;;10.25;9.00;;;;;23.32;44.79;101567.25;4976071;28;45524;-63
2021/05/31 01:02:19;;;;;;;;;11.75;10.75;;;;;23.31;44.47;101571.66;4975948;28;45492;-63
2021/05/31 01:04:45;;;;;;;;;11.75;11.00;;;;;23.30;44.57;101577.03;4993115;28;46482;-63
2021/05/31 01:07:22;;;;;;;;;12.75;12.00;;;;;23.29;44.79;101570.03;4968905;28;45422;-63
2021/05/31 01:10:00;;;;;;;;;13.00;9.00;;;;;23.29;44.87;101568.25;4994261;28;45419;-63
2021/05/31 01:12:34;;;;;;;;;9.25;9.25;;;;;23.29;44.46;101560.31;4961117;28;45779;-63
2021/05/31 01:15:09;;;;;;;;;10.50;10.00;;;;;23.29;44.79;101562.09;4981767;28;45609;-63
2021/05/31 01:17:37;;;;;;;;;9.75;9.75;;;;;23.28;44.81;101563.91;4989121;28;45600;-64
2021/05/31 01:20:07;;;;;;;;;13.75;9.50;;;;;23.26;44.63;101560.50;4991470;28;45826;-63
2021/05/31 01:22:35;;;;;;;;;8.75;8.75;;;;;23.23;44.64;101556.22;4989412;28;45571;-63
2021/05/31 01:25:15;;;;;;;;;9.50;9.50;;;;;23.26;44.34;101560.50;4984858;28;45488;-63
2021/05/31 01:28:07;;;;;;;;;10.75;9.25;;;;;23.25;44.61;101558.78;4996628;28;45531;-63
2021/05/31 01:30:32;;;;;;;;;9.00;8.75;;;;;23.24;44.27;101559.72;4989380;28;45637;-63
2021/05/31 01:32:58;;;;;;;;;8.50;8.50;;;;;23.21;44.43;101547.53;4963738;28;45470;-63
2021/05/31 01:35:25;;;;;;;;;9.25;8.50;;;;;23.24;44.31;101554.44;4965579;28;47457;-63
2021/05/31 01:37:51;;;;;;;;;12.00;10.00;;;;;23.23;44.48;101558.03;4973685;28;45602;-63
2021/05/31 01:40:17;;;;;;;;;10.75;9.00;;;;;23.23;44.32;101553.56;4988464;28;45513;-63
2021/05/31 01:42:42;;;;;;;;;10.00;9.00;;;;;23.21;44.52;101550.16;4992326;28;45528;-63
2021/05/31 01:45:10;;;;;;;;;10.00;9.50;;;;;23.21;44.76;101554.63;4962023;28;46714;-63
2021/05/31 01:47:36;;;;;;;;;11.25;9.50;;;;;23.21;44.62;101551.97;4974771;28;45473;-63
2021/05/31 01:50:04;;;;;;;;;6.50;5.50;;;;;23.21;44.52;101551.97;4988973;27;45747;-63
2021/05/31 01:52:30;;;;;;;;;12.00;9.00;;;;;23.20;43.96;101542.31;4981070;28;45522;-63
2021/05/31 01:54:56;;;;;;;;;10.00;8.25;;;;;23.19;44.51;101537.97;4997373;28;45544;-63
2021/05/31 01:57:22;;;;;;;;;9.50;7.50;;;;;23.18;44.33;101542.41;5003957;27;45494;-63
2021/05/31 01:59:48;;;;;;;;;8.00;7.25;;;;;23.18;44.09;101538.91;4995968;28;45593;-63
2021/05/31 02:02:13;;;;;;;;;8.25;8.25;;;;;23.17;44.09;101535.44;4995860;28;45458;-63
2021/05/31 02:04:39;;;;;;;;;12.25;10.25;;;;;23.16;44.58;101533.72;4998267;28;45671;-63
2021/05/31 02:07:05;;;;;;;;;7.25;7.25;;;;;23.17;44.69;101532.78;4990096;27;45573;-63
2021/05/31 02:09:30;;;;;;;;;8.50;8.50;;;;;23.16;44.10;101535.53;4997618;27;45516;-63
2021/05/31 02:12:09;;;;;;;;;9.00;8.75;;;;;23.16;44.38;101531.06;4999023;28;45464;-63
2021/05/31 02:14:57;;;;;;;;;8.00;7.25;;;;;23.17;44.39;101531.94;4997396;28;46340;-63
2021/05/31 02:17:37;;;;;;;;;7.75;7.75;;;;;23.16;44.35;101530.22;4998334;27;45576;-63
2021/05/31 02:20:04;;;;;;;;;8.75;8.50;;;;;23.15;44.01;101532.00;4994151;28;45790;-63
2021/05/31 02:22:31;;;;;;;;;7.75;7.75;;;;;23.15;44.21;101531.16;4978742;28;45682;-63
2021/05/31 02:24:56;;;;;;;;;10.00;9.00;;;;;23.13;44.17;101526.81;4996912;27;47527;-63
2021/05/31 02:27:22;;;;;;;;;6.75;6.75;;;;;23.11;44.19;101531.34;4998563;28;45749;-63
2021/05/31 02:29:47;;;;;;;;;13.25;10.00;;;;;23.12;44.21;101533.03;4994881;28;46063;-63
2021/05/31 02:32:13;;;;;;;;;6.00;5.75;;;;;23.11;44.30;101527.81;4992178;28;45535;-63
2021/05/31 02:34:38;;;;;;;;;7.25;7.00;;;;;23.11;43.83;101530.47;5008076;28;45457;-63
2021/05/31 02:37:04;;;;;;;;;8.00;7.50;;;;;23.11;44.15;101525.19;4978195;28;45587;-63
2021/05/31 02:39:29;;;;;;;;;8.75;8.00;;;;;23.10;44.24;101526.13;4998276;28;45576;-63
2021/05/31 02:41:55;;;;;;;;;9.75;8.25;;;;;23.10;44.04;101527.00;4996114;28;45670;-63
2021/05/31 02:44:20;;;;;;;;;9.75;9.75;;;;;23.09;44.03;101530.56;4998083;28;45751;-62
2021/05/31 02:46:46;;;;;;;;;10.75;8.50;;;;;23.08;44.33;101526.22;4997560;28;45515;-62
2021/05/31 02:49:11;;;;;;;;;7.25;7.25;;;;;23.09;44.36;101529.69;4984570;27;45498;-62
2021/05/31 02:51:38;;;;;;;;;10.00;9.25;;;;;23.08;44.05;101536.81;4998390;28;45530;-62
2021/05/31 02:54:04;;;;;;;;;9.75;8.50;;;;;23.09;44.20;101529.69;4979094;28;46825;-63
2021/05/31 02:59:52;;;;;;;;;7.00;5.75;;;;;23.07;44.11;101532.44;4991465;28;45519;-62
2021/05/31 03:02:18;;;;;;;;;8.75;7.25;;;;;23.06;44.00;101537.81;4984686;27;45438;-63
2021/05/31 03:04:44;;;;;;;;;7.50;7.50;;;;;23.06;43.80;101545.75;4997456;28;45633;-63
2021/05/31 03:07:10;;;;;;;;;7.25;7.25;;;;;23.05;44.07;101539.59;4994141;27;45729;-63
2021/05/31 03:09:35;;;;;;;;;10.00;9.50;;;;;23.05;43.82;101541.41;4990400;28;45498;-63
2021/05/31 03:12:01;;;;;;;;;8.25;7.00;;;;;23.06;44.18;101545.75;4996734;28;45476;-63
2021/05/31 03:14:27;;;;;;;;;4.25;4.25;;;;;23.02;43.81;101539.78;4960533;28;46878;-63
2021/05/31 03:16:52;;;;;;;;;7.50;6.75;;;;;23.01;44.00;101528.34;4997091;28;45677;-63
2021/05/31 03:19:18;;;;;;;;;10.00;8.00;;;;;23.01;43.50;101533.63;4977212;28;45707;-63
2021/05/31 03:21:43;;;;;;;;;8.00;7.50;;;;;23.01;43.70;101536.28;4995028;28;45815;-63
2021/05/31 03:24:09;;;;;;;;;8.75;7.00;;;;;23.00;44.30;101537.22;4997626;27;45637;-63
2021/05/31 03:26:34;;;;;;;;;7.50;6.50;;;;;23.01;44.05;101540.72;4988529;28;45428;-63
2021/05/31 03:29:00;;;;;;;;;8.00;8.00;;;;;22.99;43.84;101540.81;4997833;28;45432;-63
2021/05/31 03:31:25;;;;;;;;;7.75;7.75;;;;;22.99;44.28;101535.53;4987382;27;45500;-63
2021/05/31 03:33:51;;;;;;;;;8.50;7.25;;;;;22.99;43.94;101548.75;4985332;28;46130;-63
2021/05/31 03:36:16;;;;;;;;;6.75;5.50;;;;;22.99;43.70;101547.88;4979091;28;45505;-63
2021/05/31 03:38:41;;;;;;;;;8.25;8.25;;;;;22.97;43.78;101550.63;4993977;28;45779;-63
2021/05/31 03:41:07;;;;;;;;;6.75;6.00;;;;;22.97;43.86;101547.13;4994346;28;45579;-63
2021/05/31 03:43:32;;;;;;;;;8.50;7.25;;;;;22.96;43.76;101551.53;4996501;28;46678;-63
2021/05/31 03:45:58;;;;;;;;;7.75;7.25;;;;;22.97;44.11;101549.75;4996407;27;45746;-63
2021/05/31 03:51:45;;;;;;;;;7.00;7.00;;;;;22.95;43.90;101559.56;4989781;28;45547;-63
2021/05/31 03:54:12;;;;;;;;;7.00;7.00;;;;;22.93;43.41;101557.00;4996044;28;46208;-63
2021/05/31 03:56:37;;;;;;;;;6.75;6.75;;;;;22.93;43.89;101557.00;5002513;27;45647;-63
2021/05/31 03:59:03;;;;;;;;;8.50;8.50;;;;;22.90;43.83;101551.91;4995072;27;45576;-62
2021/05/31 04:01:29;;;;;;;;;8.50;8.00;;;;;22.92;43.79;101560.59;4990100;28;45569;-62
2021/05/31 04:03:54;;;;;;;;;9.00;8.00;;;;;22.92;43.96;101560.59;4993386;28;45550;-63
2021/05/31 04:11:38;;;;;;;;;7.50;6.25;;;;;22.86;43.88;101559.16;4996353;28;46174;-63
2021/05/31 04:14:09;;;;;;;;;11.25;9.75;;;;;22.91;43.75;101563.34;4986425;28;45564;-63
2021/05/31 04:16:35;;;;;;;;;7.25;7.00;;;;;22.89;44.02;101552.81;4986733;27;45554;-62
2021/05/31 04:19:00;;;;;;;;;8.75;6.00;;;;;22.89;43.78;101560.75;4994050;28;45776;-62
2021/05/31 04:21:26;;;;;;;;;6.50;6.50;;;;;22.89;43.70;101560.75;4995965;28;45577;-63
2021/05/31 04:23:52;;;;;;;;;5.75;5.75;;;;;22.87;43.71;101560.84;4979276;28;46223;-62
2021/05/31 04:26:17;;;;;;;;;7.00;7.00;;;;;22.88;43.76;101553.78;4998847;27;45522;-63
2021/05/31 04:28:43;;;;;;;;;9.00;7.50;;;;;22.86;43.52;101548.56;4985999;28;45445;-63
2021/05/31 04:31:08;;;;;;;;;6.00;5.75;;;;;22.88;43.81;101551.13;4988328;28;45574;-63
2021/05/31 04:33:34;;;;;;;;;5.25;5.25;;;;;22.87;43.59;101552.91;4997806;27;45972;-63
2021/05/31 04:35:59;;;;;;;;;6.50;5.00;;;;;22.85;43.78;101551.31;4983229;28;46097;-62
2021/05/31 04:38:25;;;;;;;;;7.00;6.00;;;;;22.86;43.96;101553.00;4987295;28;45433;-63
2021/05/31 04:40:51;;;;;;;;;8.00;8.00;;;;;22.87;43.57;101554.72;4995647;28;45682;-63
2021/05/31 04:43:17;;;;;;;;;7.00;7.00;;;;;22.86;43.91;101555.63;4995505;28;45482;-63
2021/05/31 04:45:43;;;;;;;;;6.75;6.75;;;;;22.86;43.38;101553.00;4961661;28;45850;-63
2021/05/31 04:48:09;;;;;;;;;6.00;6.00;;;;;22.85;43.77;101552.13;4984074;28;45466;-63
2021/05/31 04:50:35;;;;;;;;;7.25;5.50;;;;;22.84;43.66;101550.44;4995342;27;45509;-63
2021/05/31 04:53:00;;;;;;;;;6.25;6.25;;;;;22.84;43.36;101558.38;4978387;28;47886;-63
2021/05/31 04:55:26;;;;;;;;;8.50;6.00;;;;;22.83;43.77;101554.03;4961946;28;45708;-63
2021/05/31 04:57:51;;;;;;;;;7.00;7.00;;;;;22.83;43.67;101553.19;5002755;27;45611;-62
2021/05/31 05:00:17;;;;;;;;;5.00;5.00;;;;;22.83;43.41;101555.81;4980262;28;45423;-62
2021/05/31 05:02:43;;;;;;;;;7.25;6.25;;;;;22.82;43.13;101557.59;4976425;28;45641;-63
2021/05/31 05:05:09;;;;;;;;;6.50;5.25;;;;;22.83;43.38;101550.53;4994766;28;45582;-63
2021/05/31 05:07:34;;;;;;;;;6.25;6.25;;;;;22.83;43.64;101555.81;4992496;28;45781;-63
2021/05/31 05:10:00;;;;;;;;;7.25;6.00;;;;;22.80;43.93;101556.81;4991092;28;45431;-62
2021/05/31 05:12:25;;;;;;;;;9.50;6.75;;;;;22.84;43.84;101557.50;4996657;28;45554;-62
2021/05/31 05:14:51;;;;;;;;;6.00;6.00;;;;;22.85;43.80;101556.59;4975257;28;45374;-62
2021/05/31 05:17:16;;;;;;;;;8.00;6.50;;;;;22.86;43.75;101560.94;4989645;28;45509;-64
2021/05/31 05:19:42;;;;;;;;;9.50;9.25;;;;;22.87;44.16;101550.25;4993206;28;45488;-63
2021/05/31 05:22:07;;;;;;;;;21.75;16.25;;;;;22.88;44.28;101552.00;4996134;27;45478;-65
2021/05/31 05:24:33;;;;;;;;;40.75;29.75;;;;;22.92;44.72;101554.47;4990433;28;45696;-63
2021/05/31 05:27:05;;;;;;;;;40.25;31.00;;;;;22.92;45.22;101544.75;4997158;28;45460;-67
2021/05/31 05:29:32;;;;;;;;;54.00;35.50;;;;;22.96;46.56;101551.53;4985945;27;45484;-68
2021/05/31 05:31:59;;;;;;;;;55.50;40.75;;;;;22.95;47.08;101538.41;4981778;27;46682;-69
2021/05/31 05:34:25;;;;;;;;;58.00;40.75;;;;;22.98;47.77;101540.88;5004475;28;45646;-68
2021/05/31 05:36:55;;;;;;;;;58.00;41.00;;;;;23.05;48.31;101547.53;4970347;28;45790;-68
2021/05/31 05:39:44;;;;;;;;;56.75;38.50;;;;;23.00;48.45;101542.50;4960938;28;45656;-69
2021/05/31 05:47:47;;;;;;;;;50.25;35.00;;;;;23.08;48.56;101550.03;4992916;28;45719;-68
2021/05/31 05:50:25;;;;;;;;;42.75;29.50;;;;;23.10;48.97;101553.44;4952216;28;46703;-69
2021/05/31 05:52:53;;;;;;;;;47.75;32.75;;;;;23.09;48.58;101548.22;4975169;28;48004;-68
2021/05/31 05:55:19;;;;;;;;;39.25;30.50;;;;;23.12;48.71;101548.06;4977291;28;45498;-68
2021/05/31 05:57:45;;;;;;;;;35.50;25.75;;;;;23.09;48.71;101546.44;4982272;28;45554;-68
2021/05/31 06:00:22;;;;;;;;;33.25;23.50;;;;;23.10;48.34;101550.78;4985280;27;45668;-68
2021/05/31 06:02:48;;;;;;;;;31.75;29.00;;;;;23.10;48.55;101545.50;4981554;28;46162;-69
2021/05/31 06:05:14;;;;;;;;;36.25;29.75;;;;;23.12;48.17;101545.41;5012327;28;45893;-69
2021/05/31 06:07:40;;;;;;;;;35.75;28.50;;;;;23.11;47.91;101546.34;4985444;27;46279;-69
2021/05/31 06:10:07;;;;;;;;;31.00;25.50;;;;;23.13;48.07;101547.97;4985321;28;45943;-69
2021/05/31 06:12:33;;;;;;;;;28.75;21.25;;;;;23.12;48.26;101543.59;4983393;28;46435;-70
2021/05/31 06:14:59;;;;;;;;;22.25;18.50;;;;;23.11;48.00;101539.28;4968315;28;45686;-69
2021/05/31 06:17:24;;;;;;;;;31.75;24.00;;;;;23.13;48.12;101544.47;4983024;28;45728;-70
2021/05/31 06:19:50;;;;;;;;;27.75;21.50;;;;;23.16;47.88;101543.44;4982991;28;45706;-70
2021/05/31 06:22:15;;;;;;;;;25.75;19.50;;;;;23.11;47.40;101539.28;4995158;27;46714;-70
2021/05/31 06:24:43;;;;;;;;;28.25;22.75;;;;;23.13;47.62;101545.31;4960624;28;45567;-70
2021/05/31 06:27:08;;;;;;;;;24.75;19.25;;;;;23.13;47.16;101541.81;5041255;27;45534;-70
2021/05/31 06:29:34;;;;;;;;;23.00;20.25;;;;;23.13;47.17;101552.41;4977209;28;45794;-70
2021/05/31 06:32:00;;;;;;;;;30.75;21.25;;;;;23.16;47.49;101554.03;4986801;28;46104;-70
2021/05/31 06:34:25;;;;;;;;;25.00;20.50;;;;;23.13;47.17;101547.09;4979499;27;45638;-70
2021/05/31 06:36:54;;;;;;;;;23.25;18.75;;;;;23.14;47.05;101556.75;5013643;28;45538;-70
2021/05/31 06:39:20;;;;;;;;;22.00;17.25;;;;;23.13;47.00;101557.69;4964506;28;45667;-70
2021/05/31 06:41:46;;;;;;;;;22.00;18.75;;;;;23.12;46.58;101550.72;4972710;28;47826;-70
2021/05/31 06:44:11;;;;;;;;;17.00;14.00;;;;;23.12;46.82;101546.25;4979843;28;45781;-70
2021/05/31 06:46:37;;;;;;;;;30.00;19.25;;;;;23.12;46.62;101548.88;4978614;28;45452;-70
2021/05/31 06:49:02;;;;;;;;;26.50;18.00;;;;;23.10;46.29;101545.50;4980964;28;45394;-70
2021/05/31 06:51:28;;;;;;;;;13.75;10.75;;;;;23.11;46.83;101547.19;4988037;28;46432;-70
2021/05/31 06:53:54;;;;;;;;;26.00;17.75;;;;;23.11;46.50;101547.19;5013917;28;45486;-70
2021/05/31 06:56:20;;;;;;;;;22.25;14.75;;;;;23.10;46.59;101544.66;4977116;28;45512;-70
2021/05/31 06:58:46;;;;;;;;;22.00;16.50;;;;;23.09;46.39;101540.28;4985925;27;45541;-70
2021/05/31 07:01:11;;;;;;;;;21.50;14.00;;;;;23.12;46.38;101546.25;4959626;28;46844;-70
2021/05/31 07:03:37;;;;;;;;;15.25;12.75;;;;;23.12;46.38;101543.59;4959674;28;45446;-70
2021/05/31 07:06:06;;;;;;;;;17.25;13.75;;;;;23.08;46.53;101536.81;4973612;28;45536;-70
2021/05/31 07:08:32;;;;;;;;;21.75;15.50;;;;;23.09;46.39;101535.00;4993690;28;45826;-70
2021/05/31 07:10:59;;;;;;;;;18.25;13.75;;;;;23.12;46.07;101534.84;4993723;28;45569;-70
2021/05/31 07:13:26;;;;;;;;;17.50;13.50;;;;;23.13;46.03;101540.03;4978004;28;45730;-70
2021/05/31 07:15:52;;;;;;;;;20.75;13.25;;;;;23.10;46.08;101528.78;4977445;28;45594;-70
2021/05/31 07:18:19;;;;;;;;;17.00;13.50;;;;;23.11;46.09;101535.75;4977280;28;45929;-70
2021/05/31 07:20:49;;;;;;;;;21.25;13.00;;;;;23.10;45.71;101531.44;4962323;28;47052;-70
2021/05/31 07:23:15;;;;;;;;;14.25;12.50;;;;;23.09;45.53;101525.28;4962507;28;45540;-70
2021/05/31 07:25:41;;;;;;;;;12.50;10.00;;;;;23.07;46.21;101521.84;4957138;28;45548;-70
2021/05/31 07:28:06;;;;;;;;;14.75;9.50;;;;;23.05;45.67;101526.38;4991249;28;45543;-70
2021/05/31 07:30:32;;;;;;;;;10.75;10.25;;;;;23.07;45.29;101527.16;4988275;28;45519;-70
2021/05/31 07:32:58;;;;;;;;;15.00;12.50;;;;;23.06;45.89;101522.81;4989282;27;45504;-70
2021/05/31 07:35:24;;;;;;;;;10.00;8.50;;;;;23.02;45.55;101518.63;4994630;28;45586;-70
2021/05/31 07:37:49;;;;;;;;;12.00;11.75;;;;;23.05;45.46;101525.53;4994678;27;45492;-70
2021/05/31 07:40:16;;;;;;;;;15.75;11.50;;;;;23.03;45.36;101528.28;4989343;28;46950;-70
2021/05/31 07:42:41;;;;;;;;;13.00;11.75;;;;;23.05;45.51;101522.91;4985619;28;45543;-70
2021/05/31 07:45:08;;;;;;;;;13.50;10.75;;;;;23.03;45.61;101516.84;4988433;28;45715;-67
2021/05/31 07:47:33;;;;;;;;;14.00;11.25;;;;;23.06;45.14;101529.88;4998226;27;45568;-69
2021/05/31 07:49:59;;;;;;;;;10.50;8.50;;;;;23.08;45.05;101534.16;4986410;28;45696;-69
2021/05/31 07:52:25;;;;;;;;;13.00;9.00;;;;;23.07;45.14;101528.97;4978874;27;45535;-68
2021/05/31 07:54:51;;;;;;;;;10.00;10.00;;;;;23.04;45.38;101513.25;4981794;27;45551;-68
2021/05/31 07:57:17;;;;;;;;;13.50;10.00;;;;;23.01;45.51;101509.84;4973043;28;45922;-69
2021/05/31 07:59:45;;;;;;;;;8.50;8.25;;;;;23.04;45.49;101516.75;4978068;28;46822;-69
2021/05/31 08:02:10;;;;;;;;;11.75;10.00;;;;;23.02;45.18;101508.06;4988358;27;45680;-69
2021/05/31 08:04:36;;;;;;;;;12.50;10.75;;;;;23.05;45.20;101512.31;4988453;28;45532;-68
2021/05/31 08:07:02;;;;;;;;;11.00;9.50;;;;;23.03;44.97;101514.19;4982515;27;45471;-69
2021/05/31 08:09:28;;;;;;;;;10.75;8.25;;;;;23.08;45.19;101514.78;4995222;27;45435;-68
2021/05/31 08:11:55;;;;;;;;;8.00;7.00;;;;;23.00;45.37;101508.13;4976004;28;45839;-69
2021/05/31 08:14:21;;;;;;;;;11.50;9.00;;;;;23.01;45.34;101517.75;4982350;28;45945;-68
2021/05/31 08:16:48;;;;;;;;;11.50;9.50;;;;;23.03;45.15;101509.78;4982708;28;45623;-69
2021/05/31 08:19:14;;;;;;;;;9.00;6.00;;;;;23.05;44.54;101513.16;4990543;28;45879;-68
2021/05/31 08:21:40;;;;;;;;;15.00;11.25;;;;;23.02;44.90;101505.41;4959676;28;45484;-68
2021/05/31 08:24:06;;;;;;;;;10.50;8.00;;;;;23.02;44.84;101502.75;4977912;28;45725;-68
2021/05/31 08:26:32;;;;;;;;;9.75;8.75;;;;;23.01;44.94;101501.91;5009270;28;45542;-68
2021/05/31 08:28:57;;;;;;;;;8.75;7.00;;;;;23.02;44.89;101492.19;4983370;28;45443;-68
2021/05/31 08:31:23;;;;;;;;;8.50;8.00;;;;;23.02;44.77;101494.84;4989229;28;46173;-68
2021/05/31 08:33:49;;;;;;;;;7.00;7.00;;;;;23.00;44.76;101481.69;4994566;28;45554;-67
2021/05/31 08:36:15;;;;;;;;;11.25;8.50;;;;;23.02;44.11;101486.91;5020027;27;45621;-68
2021/05/31 08:38:41;;;;;;;;;9.00;6.75;;;;;23.02;44.64;101476.31;5025121;27;45597;-68
2021/05/31 08:41:06;;;;;;;;;5.75;4.75;;;;;23.03;44.69;101478.03;4994734;28;45622;-68
2021/05/31 08:43:32;;;;;;;;;14.25;7.75;;;;;23.03;44.66;101483.34;4975934;28;45794;-68
2021/05/31 08:45:57;;;;;;;;;6.00;6.00;;;;;23.01;44.27;101475.47;4982114;28;45531;-69
2021/05/31 08:48:23;;;;;;;;;9.25;6.00;;;;;23.00;44.07;101481.69;4962417;28;46921;-69
2021/05/31 08:50:49;;;;;;;;;7.00;6.00;;;;;23.01;44.22;101469.34;4985172;27;45498;-69
2021/05/31 08:53:15;;;;;;;;;6.00;6.00;;;;;22.99;44.12;101463.28;4978271;27;45810;-69
2021/05/31 08:55:40;;;;;;;;;6.75;6.75;;;;;23.06;44.82;101469.06;4979617;27;45496;-70
2021/05/31 08:58:19;;;;;;;;;8.50;7.00;;;;;23.08;44.73;101469.84;4986707;27;45999;-69
2021/05/31 09:00:45;;;;;;;;;12.75;6.00;;;;;23.10;45.53;101474.13;4981697;28;45765;-69
2021/05/31 09:03:11;;;;;;;;;6.00;5.50;;;;;23.10;45.45;101467.97;4973342;28;45464;-71
2021/05/31 09:05:37;;;;;;;;;6.50;6.00;;;;;23.09;43.42;101475.03;4984607;27;46235;-71
2021/05/31 09:08:08;;;;;;;;;4.00;4.00;;;;;23.08;42.98;101470.69;4982394;28;45504;-71
2021/05/31 09:10:46;;;;;;;;;6.50;5.00;;;;;23.07;43.80;101471.63;4984585;27;46052;-73
2021/05/31 09:13:32;;;;;;;;;5.75;5.75;;;;;23.07;43.87;101463.69;4956709;28;45551;-72
2021/05/31 09:16:04;;;;;;;;;8.00;6.50;;;;;23.08;43.57;101468.06;4972325;28;45740;-71
2021/05/31 09:18:30;;;;;;;;;6.75;6.75;;;;;23.06;42.93;101472.56;4977741;28;45580;-72
2021/05/31 09:20:57;;;;;;;;;6.00;6.00;;;;;23.06;42.45;101469.06;5027472;27;45477;-72
2021/05/31 09:23:23;;;;;;;;;5.00;5.00;;;;;23.05;42.04;101457.63;4985368;28;45567;-73
2021/05/31 09:25:48;;;;;;;;;6.25;5.50;;;;;23.05;42.81;101456.81;4979896;28;45678;-72
2021/05/31 09:28:14;;;;;;;;;8.25;6.00;;;;;23.07;42.77;101457.56;4984403;28;45807;-72
2021/05/31 09:30:43;;;;;;;;;7.75;5.00;;;;;23.08;43.62;101456.63;4958898;28;45422;-71
2021/05/31 09:33:11;;;;;;;;;5.00;5.00;;;;;23.11;44.25;101452.00;4986321;27;45639;-71
2021/05/31 09:35:44;;;;;;;;;9.25;6.50;;;;;23.07;44.12;101447.81;4982047;27;46079;-72
2021/05/31 09:38:10;;;;;;;;;8.50;5.75;;;;;23.11;44.11;101449.38;4981271;28;45815;-75
2021/05/31 09:40:35;;;;;;;;;6.00;5.75;;;;;23.12;44.24;101453.69;4979073;28;45848;-77
2021/05/31 09:43:03;;;;;;;;;6.50;6.50;;;;;23.11;43.81;101446.72;4978751;28;45438;-74
2021/05/31 09:45:33;;;;;;;;;4.75;4.00;;;;;23.12;43.71;101447.56;4973706;28;46839;-74
2021/05/31 09:48:02;;;;;;;;;7.75;6.00;;;;;23.12;43.78;101447.56;4982201;28;45815;-72
2021/05/31 09:50:29;;;;;;;;;4.75;4.75;;;;;23.12;43.81;101442.28;4975557;28;45509;-74
2021/05/31 09:53:05;;;;;;;;;6.25;5.00;;;;;23.14;43.88;101456.28;4982495;28;45538;-74
2021/05/31 09:55:36;;;;;;;;;5.00;5.00;;;;;23.09;43.47;101447.72;4984933;27;45723;-74
2021/05/31 09:58:06;;;;;;;;;4.75;4.75;;;;;23.13;43.77;101447.47;4992385;27;45676;-74
2021/05/31 10:00:32;;;;;;;;;4.00;4.00;;;;;23.10;43.74;101437.09;4979771;27;45961;-73
2021/05/31 10:03:09;;;;;;;;;5.00;5.00;;;;;23.11;43.75;101435.28;4983103;27;45513;-73
2021/05/31 10:05:38;;;;;;;;;6.25;4.50;;;;;23.11;43.65;101449.38;4980340;28;45741;-73
2021/05/31 10:10:40;;;;;;;;;5.00;3.25;;;;;23.14;43.76;101448.34;4979642;27;45709;-74
2021/05/31 10:13:06;;;;;;;;;5.75;4.00;;;;;23.11;43.68;101440.56;4985395;28;45944;-74
2021/05/31 10:15:35;;;;;;;;;4.00;4.00;;;;;23.13;43.90;101439.56;5004363;28;45637;-73
2021/05/31 10:18:01;;;;;;;;;6.00;3.75;;;;;23.12;43.57;101439.66;4993811;28;45802;-73
2021/05/31 10:20:27;;;;;;;;;3.00;3.00;;;;;23.12;43.41;101434.34;4976037;28;45562;-73
2021/05/31 10:22:53;;;;;;;;;5.75;5.50;;;;;23.12;43.81;101432.53;4979862;28;45536;-73
2021/05/31 10:25:19;;;;;;;;;4.50;4.50;;;;;23.18;43.72;101435.75;4978527;27;45695;-73
2021/05/31 10:27:44;;;;;;;;;5.50;5.00;;;;;23.14;43.64;101432.47;5009402;28;46456;-73
2021/05/31 10:30:13;;;;;;;;;5.50;5.50;;;;;23.13;43.51;101428.13;4985719;27;45441;-73
2021/05/31 10:32:39;;;;;;;;;5.75;4.75;;;;;23.16;43.64;101427.94;4962431;28;45548;-74
2021/05/31 10:35:20;;;;;;;;;5.00;5.00;;;;;23.19;43.56;101432.19;4983825;28;45498;-74
2021/05/31 10:38:15;;;;;;;;;5.00;5.00;;;;;23.21;43.45;101427.69;4987798;27;45593;-73
2021/05/31 10:40:45;;;;;;;;;3.50;3.50;;;;;23.18;43.67;101417.25;4981066;28;45682;-74
2021/05/31 10:43:12;;;;;;;;;3.25;3.25;;;;;23.21;43.67;101428.50;4994361;28;45421;-74
2021/05/31 10:45:38;;;;;;;;;4.00;4.00;;;;;23.19;44.14;101419.84;4982812;28;45736;-75
2021/05/31 10:48:10;;;;;;;;;4.75;3.25;;;;;23.24;43.38;101431.00;5004270;28;45569;-74
2021/05/31 10:50:42;;;;;;;;;6.50;4.50;;;;;23.21;43.84;101427.69;4978018;28;45471;-73
2021/05/31 10:53:33;;;;;;;;;3.75;3.75;;;;;23.22;43.51;101413.50;4982338;28;45711;-74
2021/05/31 10:56:03;;;;;;;;;5.75;5.25;;;;;23.22;43.42;101421.44;4981260;28;45666;-75
2021/05/31 10:58:39;;;;;;;;;5.00;5.00;;;;;23.25;43.77;101419.47;5028432;27;45882;-75
2021/05/31 11:01:09;;;;;;;;;5.75;3.25;;;;;23.27;43.43;101418.53;4985100;28;45898;-75
2021/05/31 11:03:44;;;;;;;;;5.75;5.75;;;;;23.29;43.79;101424.56;4984223;27;45807;-75
2021/05/31 11:06:14;;;;;;;;;6.50;5.00;;;;;23.27;43.48;101421.19;4988103;27;45758;-74
2021/05/31 11:08:47;;;;;;;;;6.50;4.75;;;;;23.27;43.67;101411.44;4980576;27;45564;-75
2021/05/31 11:11:25;;;;;;;;;4.00;3.00;;;;;23.31;43.66;101415.59;4988718;27;45685;-76
2021/05/31 11:13:50;;;;;;;;;4.00;4.00;;;;;23.27;43.59;101400.03;4982497;28;45591;-70
2021/05/31 11:16:16;;;;;;;;;5.25;4.00;;;;;23.29;43.49;101406.03;4984569;27;45922;-71
2021/05/31 11:18:45;;;;;;;;;4.00;4.00;;;;;23.31;43.86;101407.66;4983747;27;45777;-70
2021/05/31 11:21:31;;;;;;;;;4.00;4.00;;;;;23.33;43.33;101403.16;4990960;27;45897;-79
2021/05/31 11:23:58;;;;;;;;;6.00;4.50;;;;;23.32;43.14;101403.25;4992094;28;45709;-79
2021/05/31 11:26:27;;;;;;;;;4.25;4.25;;;;;23.33;43.39;101391.69;4958925;28;45853;-79
2021/05/31 11:28:54;;;;;;;;;5.00;5.00;;;;;23.36;43.29;101396.81;4979309;28;46343;-77
2021/05/31 11:31:20;;;;;;;;;4.00;4.00;;;;;23.39;43.28;101394.00;4975151;28;46010;-78
2021/05/31 11:33:52;;;;;;;;;3.00;3.00;;;;;23.40;43.49;101384.25;4976651;28;45441;-80
2021/05/31 11:36:41;;;;;;;;;4.75;4.75;;;;;23.42;43.28;101383.25;4979990;28;45818;-82
2021/05/31 11:39:15;;;;;;;;;5.50;3.00;;;;;23.44;43.20;101381.38;4984534;28;46441;-81
2021/05/31 11:41:50;;;;;;;;;6.75;5.00;;;;;23.46;43.36;101383.91;4985418;28;45769;-80